Time;durP1;ratioP1;P1;durP2;ratioP2;P2;SDS_P1;SDS_P2;PMS_P1;PMS_P2;Temp;Humidity;BMP_temperature;BMP_pressure;BME280_temperature;BME280_humidity;BME280_pressure;Samples;Min_cycle;Max_cycle;Signal;HPM_P1;HPM_P2
2022/09/23 00:00:02;;;;;;;0.70;0.60;;;;;;;;;;5077293;28;20469;-75
2022/09/23 00:02:30;;;;;;;0.70;0.60;;;;;;;;;;5079972;28;20439;-76
2022/09/23 00:04:57;;;;;;;0.70;0.60;;;;;;;;;;5062560;28;20496;-75
2022/09/23 00:07:26;;;;;;;0.70;0.70;;;;;;;;;;5083551;28;20528;-75
2022/09/23 00:09:55;;;;;;;0.70;0.57;;;;;;;;;;5084007;28;20439;-74
2022/09/23 00:12:21;;;;;;;0.70;0.60;;;;;;;;;;5097654;28;20851;-75
2022/09/23 00:14:48;;;;;;;0.70;0.60;;;;;;;;;;5089074;28;20463;-75
2022/09/23 00:17:15;;;;;;;0.70;0.60;;;;;;;;;;5071007;28;20442;-76
2022/09/23 00:19:42;;;;;;;0.70;0.60;;;;;;;;;;5091069;28;20447;-75
2022/09/23 00:22:09;;;;;;;0.70;0.60;;;;;;;;;;5087081;28;20515;-74
2022/09/23 00:24:38;;;;;;;0.80;0.80;;;;;;;;;;5086002;28;20566;-75
2022/09/23 00:27:05;;;;;;;0.80;0.70;;;;;;;;;;5083251;28;20457;-74
2022/09/23 00:29:32;;;;;;;0.70;0.60;;;;;;;;;;5069290;28;20479;-75
2022/09/23 00:31:58;;;;;;;0.70;0.60;;;;;;;;;;5083992;28;20453;-75
2022/09/23 00:34:25;;;;;;;0.60;0.60;;;;;;;;;;5080715;28;20458;-73
2022/09/23 00:36:53;;;;;;;0.70;0.60;;;;;;;;;;5081429;28;20474;-76
2022/09/23 00:39:20;;;;;;;0.70;0.60;;;;;;;;;;5085619;28;20433;-75
2022/09/23 00:41:48;;;;;;;0.70;0.60;;;;;;;;;;5067824;28;20454;-77
2022/09/23 00:44:34;;;;;;;0.80;0.80;;;;;;;;;;5089049;28;20445;-75
2022/09/23 00:47:10;;;;;;;0.70;0.60;;;;;;;;;;5084764;28;20482;-76
2022/09/23 00:49:40;;;;;;;0.70;0.70;;;;;;;;;;5078350;28;20459;-76
2022/09/23 00:52:12;;;;;;;0.70;0.60;;;;;;;;;;5083884;28;20462;-75
2022/09/23 00:54:46;;;;;;;0.80;0.60;;;;;;;;;;5079457;28;20836;-76
2022/09/23 00:57:21;;;;;;;0.70;0.60;;;;;;;;;;5075584;28;20545;-75
2022/09/23 00:59:53;;;;;;;0.70;0.60;;;;;;;;;;5063980;28;20439;-75
2022/09/23 01:02:27;;;;;;;0.77;0.70;;;;;;;;;;5063206;28;21502;-76
2022/09/23 01:04:55;;;;;;;1.23;1.13;;;;;;;;;;5084036;28;20551;-77
2022/09/23 01:07:24;;;;;;;0.70;0.70;;;;;;;;;;5094746;28;20959;-77
2022/09/23 01:09:55;;;;;;;0.70;0.60;;;;;;;;;;5093171;28;20859;-76
2022/09/23 01:12:33;;;;;;;0.70;0.60;;;;;;;;;;5073084;28;20459;-77
2022/09/23 01:15:10;;;;;;;0.70;0.60;;;;;;;;;;5060044;28;20448;-77
2022/09/23 01:17:48;;;;;;;0.87;0.80;;;;;;;;;;5068850;28;20444;-76
2022/09/23 01:20:38;;;;;;;1.10;1.00;;;;;;;;;;5067989;28;20457;-76
2022/09/23 01:23:19;;;;;;;0.70;0.63;;;;;;;;;;5046318;28;20436;-76
2022/09/23 01:25:58;;;;;;;0.70;0.60;;;;;;;;;;5072654;28;20529;-75
2022/09/23 01:28:38;;;;;;;0.67;0.60;;;;;;;;;;5079862;28;20466;-75
2022/09/23 01:31:20;;;;;;;0.70;0.60;;;;;;;;;;5078864;28;20419;-75
2022/09/23 01:33:56;;;;;;;0.70;0.60;;;;;;;;;;5080529;28;20989;-76
2022/09/23 01:36:32;;;;;;;0.70;0.63;;;;;;;;;;5069571;28;20476;-75
2022/09/23 01:39:02;;;;;;;0.70;0.70;;;;;;;;;;5078884;28;20967;-76
2022/09/23 01:41:51;;;;;;;0.70;0.70;;;;;;;;;;5083032;28;20440;-75
2022/09/23 01:44:25;;;;;;;0.70;0.60;;;;;;;;;;5049283;28;21037;-75
2022/09/23 01:47:01;;;;;;;0.70;0.60;;;;;;;;;;5073202;28;20479;-75
2022/09/23 01:49:39;;;;;;;0.80;0.80;;;;;;;;;;5059133;28;20511;-78
2022/09/23 01:52:14;;;;;;;0.70;0.60;;;;;;;;;;5074336;28;20911;-77
2022/09/23 01:54:49;;;;;;;0.70;0.70;;;;;;;;;;5063721;28;20453;-76
2022/09/23 01:57:21;;;;;;;0.70;0.60;;;;;;;;;;5055364;28;20449;-76
2022/09/23 01:59:58;;;;;;;0.70;0.60;;;;;;;;;;5068757;28;20949;-77
2022/09/23 02:02:48;;;;;;;0.70;0.60;;;;;;;;;;5075749;28;20431;-77
2022/09/23 02:05:23;;;;;;;0.70;0.60;;;;;;;;;;5065757;28;20520;-76
2022/09/23 02:07:54;;;;;;;0.70;0.60;;;;;;;;;;5060210;28;20450;-76
2022/09/23 02:10:23;;;;;;;0.90;0.90;;;;;;;;;;5075380;28;20505;-78
2022/09/23 02:12:52;;;;;;;0.70;0.60;;;;;;;;;;5089556;28;20435;-76
2022/09/23 02:15:22;;;;;;;0.70;0.60;;;;;;;;;;5058769;28;20493;-76
2022/09/23 02:17:52;;;;;;;0.70;0.60;;;;;;;;;;5081775;28;20484;-75
2022/09/23 02:20:22;;;;;;;0.70;0.60;;;;;;;;;;5087864;28;20450;-76
2022/09/23 02:22:51;;;;;;;0.70;0.70;;;;;;;;;;5102519;28;20794;-78
2022/09/23 02:25:20;;;;;;;0.70;0.60;;;;;;;;;;5081566;28;20448;-75
2022/09/23 02:27:55;;;;;;;0.70;0.60;;;;;;;;;;5084860;28;20509;-74
2022/09/23 02:30:28;;;;;;;0.70;0.60;;;;;;;;;;5059130;28;20477;-78
2022/09/23 02:32:59;;;;;;;0.70;0.60;;;;;;;;;;5085982;28;20457;-75
2022/09/23 02:35:31;;;;;;;1.10;1.00;;;;;;;;;;5106717;28;20446;-76
2022/09/23 02:38:04;;;;;;;0.70;0.60;;;;;;;;;;5108705;28;20427;-76
2022/09/23 02:40:36;;;;;;;0.70;0.60;;;;;;;;;;5091422;28;20979;-76
2022/09/23 02:43:05;;;;;;;0.70;0.60;;;;;;;;;;5085279;28;20422;-77
2022/09/23 02:45:32;;;;;;;0.70;0.70;;;;;;;;;;5076766;28;20443;-77
2022/09/23 02:48:03;;;;;;;0.80;0.70;;;;;;;;;;5086885;28;20451;-76
2022/09/23 02:50:30;;;;;;;0.70;0.60;;;;;;;;;;5079623;28;20479;-77
2022/09/23 02:52:57;;;;;;;0.70;0.60;;;;;;;;;;5084751;28;20436;-76
2022/09/23 02:55:24;;;;;;;0.70;0.60;;;;;;;;;;5082004;28;20816;-76
2022/09/23 02:57:52;;;;;;;0.70;0.60;;;;;;;;;;5086750;28;20462;-77
2022/09/23 03:00:19;;;;;;;0.70;0.60;;;;;;;;;;5083670;28;20462;-76
2022/09/23 03:02:54;;;;;;;0.70;0.60;;;;;;;;;;5087535;28;20447;-76
2022/09/23 03:05:25;;;;;;;0.70;0.70;;;;;;;;;;5064668;28;20439;-76
2022/09/23 03:08:02;;;;;;;0.70;0.60;;;;;;;;;;5073414;28;20442;-76
2022/09/23 03:10:32;;;;;;;0.70;0.60;;;;;;;;;;5079966;28;20478;-76
2022/09/23 03:13:04;;;;;;;0.70;0.60;;;;;;;;;;5081331;28;20784;-76
2022/09/23 03:15:34;;;;;;;0.70;0.60;;;;;;;;;;5084001;28;20824;-75
2022/09/23 03:18:08;;;;;;;0.70;0.70;;;;;;;;;;5082241;28;20426;-76
2022/09/23 03:20:39;;;;;;;0.70;0.60;;;;;;;;;;5080566;28;20484;-76
2022/09/23 03:23:07;;;;;;;0.70;0.60;;;;;;;;;;5081873;28;20810;-77
2022/09/23 03:25:35;;;;;;;0.70;0.60;;;;;;;;;;5097444;28;20931;-76
2022/09/23 03:28:02;;;;;;;0.70;0.60;;;;;;;;;;5087209;28;20438;-76
2022/09/23 03:30:30;;;;;;;0.70;0.60;;;;;;;;;;5086356;28;20522;-76
2022/09/23 03:32:59;;;;;;;1.20;1.10;;;;;;;;;;5087354;28;20447;-76
2022/09/23 03:35:27;;;;;;;0.80;0.70;;;;;;;;;;5073273;28;20462;-77
2022/09/23 03:37:59;;;;;;;0.70;0.60;;;;;;;;;;5074954;28;20435;-76
2022/09/23 03:40:28;;;;;;;0.70;0.70;;;;;;;;;;5094851;28;20963;-76
2022/09/23 03:42:55;;;;;;;0.80;0.70;;;;;;;;;;5081412;28;20940;-76
2022/09/23 03:45:26;;;;;;;8.83;1.47;;;;;;;;;;5084557;28;20427;-76
2022/09/23 03:47:55;;;;;;;0.70;0.60;;;;;;;;;;5084988;28;20438;-77
2022/09/23 03:50:22;;;;;;;0.80;0.77;;;;;;;;;;5088047;28;20977;-77
2022/09/23 03:52:49;;;;;;;0.70;0.60;;;;;;;;;;5083010;28;20439;-77
2022/09/23 03:55:18;;;;;;;0.70;0.60;;;;;;;;;;5091974;28;20479;-78
2022/09/23 03:57:45;;;;;;;0.70;0.60;;;;;;;;;;5074545;28;20444;-75
2022/09/23 04:00:13;;;;;;;0.70;0.63;;;;;;;;;;5087370;28;20426;-74
2022/09/23 04:02:40;;;;;;;0.70;0.60;;;;;;;;;;5099363;28;20446;-77
2022/09/23 04:05:08;;;;;;;0.70;0.60;;;;;;;;;;5078943;28;20475;-77
2022/09/23 04:07:35;;;;;;;0.70;0.50;;;;;;;;;;5064277;28;20477;-77
2022/09/23 04:10:03;;;;;;;0.70;0.60;;;;;;;;;;5088352;28;20468;-75
2022/09/23 04:12:32;;;;;;;0.70;0.70;;;;;;;;;;5083450;28;20458;-75
2022/09/23 04:14:58;;;;;;;0.70;0.60;;;;;;;;;;5086212;28;20456;-77
2022/09/23 04:17:25;;;;;;;0.80;0.80;;;;;;;;;;5065969;28;20942;-75
2022/09/23 04:19:52;;;;;;;0.70;0.60;;;;;;;;;;5081595;28;20526;-76
2022/09/23 04:22:19;;;;;;;0.70;0.60;;;;;;;;;;5073990;28;20468;-75
2022/09/23 04:24:45;;;;;;;0.70;0.60;;;;;;;;;;5077312;28;20869;-76
2022/09/23 04:27:14;;;;;;;0.70;0.70;;;;;;;;;;5095213;28;20477;-75
2022/09/23 04:29:42;;;;;;;0.70;0.60;;;;;;;;;;5087527;28;20468;-76
2022/09/23 04:32:09;;;;;;;0.70;0.60;;;;;;;;;;5082581;28;20500;-75
2022/09/23 04:34:36;;;;;;;0.70;0.60;;;;;;;;;;5090105;28;20529;-74
2022/09/23 04:37:03;;;;;;;0.70;0.70;;;;;;;;;;5087668;28;20470;-75
2022/09/23 04:39:31;;;;;;;0.70;0.60;;;;;;;;;;5082901;28;20549;-76
2022/09/23 04:41:58;;;;;;;0.70;0.60;;;;;;;;;;5101686;28;20515;-76
2022/09/23 04:44:26;;;;;;;0.70;0.70;;;;;;;;;;5080118;28;20943;-75
2022/09/23 04:46:55;;;;;;;0.70;0.70;;;;;;;;;;5080748;28;20454;-76
2022/09/23 04:49:22;;;;;;;0.70;0.60;;;;;;;;;;5079042;28;20519;-76
2022/09/23 04:51:49;;;;;;;0.70;0.60;;;;;;;;;;5080010;28;20473;-77
2022/09/23 04:54:16;;;;;;;0.70;0.70;;;;;;;;;;5110829;28;20439;-77
2022/09/23 04:56:42;;;;;;;0.70;0.60;;;;;;;;;;5056637;28;20452;-76
2022/09/23 04:59:09;;;;;;;0.90;0.90;;;;;;;;;;5061346;28;20471;-77
2022/09/23 05:01:37;;;;;;;0.80;0.80;;;;;;;;;;5083275;28;20446;-77
2022/09/23 05:04:09;;;;;;;0.70;0.60;;;;;;;;;;5087510;28;20442;-76
2022/09/23 05:06:37;;;;;;;0.70;0.70;;;;;;;;;;5083975;28;20469;-77
2022/09/23 05:09:05;;;;;;;0.70;0.60;;;;;;;;;;5085425;28;20438;-77
2022/09/23 05:11:33;;;;;;;0.70;0.60;;;;;;;;;;5085984;28;20442;-75
2022/09/23 05:14:00;;;;;;;0.70;0.60;;;;;;;;;;5071884;28;20434;-76
2022/09/23 05:16:28;;;;;;;0.70;0.60;;;;;;;;;;5091270;28;20462;-76
2022/09/23 05:18:56;;;;;;;0.70;0.60;;;;;;;;;;5093725;28;20461;-77
2022/09/23 05:21:26;;;;;;;0.70;0.70;;;;;;;;;;5094025;28;20450;-75
2022/09/23 05:23:54;;;;;;;0.70;0.60;;;;;;;;;;5072797;28;20463;-75
2022/09/23 05:26:22;;;;;;;0.70;0.60;;;;;;;;;;5074111;28;20530;-76
2022/09/23 05:28:49;;;;;;;0.70;0.70;;;;;;;;;;5079013;28;20439;-75
2022/09/23 05:31:17;;;;;;;1.10;1.00;;;;;;;;;;5101821;28;20466;-76
2022/09/23 05:33:47;;;;;;;0.70;0.70;;;;;;;;;;5082931;28;20452;-76
2022/09/23 05:36:16;;;;;;;0.70;0.60;;;;;;;;;;5082070;28;20501;-77
2022/09/23 05:38:44;;;;;;;0.70;0.60;;;;;;;;;;5077814;28;20455;-75
2022/09/23 05:41:12;;;;;;;0.70;0.60;;;;;;;;;;5054818;28;20474;-76
2022/09/23 05:43:40;;;;;;;0.70;0.70;;;;;;;;;;5085270;28;20508;-76
2022/09/23 05:46:09;;;;;;;0.70;0.60;;;;;;;;;;5075443;28;20449;-76
2022/09/23 05:48:37;;;;;;;0.70;0.60;;;;;;;;;;5071370;28;20460;-76
2022/09/23 05:51:11;;;;;;;0.70;0.60;;;;;;;;;;5101696;28;20489;-76
2022/09/23 05:53:39;;;;;;;0.70;0.60;;;;;;;;;;5084157;28;20459;-76
2022/09/23 05:56:07;;;;;;;0.70;0.60;;;;;;;;;;5062492;28;20450;-75
2022/09/23 05:58:34;;;;;;;0.70;0.70;;;;;;;;;;5080710;28;20978;-75
2022/09/23 06:01:07;;;;;;;0.70;0.60;;;;;;;;;;5085050;28;20447;-74
2022/09/23 06:03:34;;;;;;;0.70;0.60;;;;;;;;;;5085538;28;20912;-74
2022/09/23 06:06:01;;;;;;;0.73;0.70;;;;;;;;;;5079595;28;20463;-74
2022/09/23 06:08:28;;;;;;;0.70;0.60;;;;;;;;;;5083380;28;20530;-74
2022/09/23 06:11:03;;;;;;;0.70;0.60;;;;;;;;;;5095791;28;20470;-77
2022/09/23 06:13:32;;;;;;;0.70;0.60;;;;;;;;;;5086358;28;20856;-76
2022/09/23 06:15:58;;;;;;;0.70;0.60;;;;;;;;;;5066653;28;20533;-74
2022/09/23 06:18:25;;;;;;;0.70;0.50;;;;;;;;;;5074459;28;20448;-75
2022/09/23 06:20:53;;;;;;;0.70;0.67;;;;;;;;;;5062648;28;20470;-75
2022/09/23 06:23:19;;;;;;;0.70;0.60;;;;;;;;;;5083630;28;20446;-76
2022/09/23 06:25:51;;;;;;;0.70;0.60;;;;;;;;;;5080655;28;20446;-75
2022/09/23 06:28:18;;;;;;;0.70;0.60;;;;;;;;;;5059969;28;20537;-75
2022/09/23 06:30:48;;;;;;;0.80;0.80;;;;;;;;;;5086582;28;20522;-74
2022/09/23 06:33:15;;;;;;;0.70;0.70;;;;;;;;;;5063779;28;20482;-75
2022/09/23 06:35:45;;;;;;;0.70;0.70;;;;;;;;;;5076343;28;20573;-74
2022/09/23 06:38:24;;;;;;;0.80;0.73;;;;;;;;;;5089490;28;20451;-75
2022/09/23 06:40:53;;;;;;;1.20;0.87;;;;;;;;;;5075244;28;20431;-75
2022/09/23 06:43:20;;;;;;;0.80;0.80;;;;;;;;;;5076812;28;20485;-74
2022/09/23 06:45:52;;;;;;;2.70;1.20;;;;;;;;;;5089810;28;20436;-74
2022/09/23 06:48:19;;;;;;;0.70;0.60;;;;;;;;;;5075831;28;20433;-75
2022/09/23 06:50:48;;;;;;;0.70;0.60;;;;;;;;;;5078863;28;20506;-75
2022/09/23 06:53:15;;;;;;;0.70;0.70;;;;;;;;;;5082444;28;21010;-75
2022/09/23 06:55:42;;;;;;;0.70;0.60;;;;;;;;;;5097711;28;20440;-74
2022/09/23 06:58:09;;;;;;;0.70;0.60;;;;;;;;;;5083643;28;20439;-75
2022/09/23 07:00:36;;;;;;;0.70;0.60;;;;;;;;;;5069616;28;20497;-75
2022/09/23 07:03:07;;;;;;;0.70;0.70;;;;;;;;;;5083676;28;20559;-73
2022/09/23 07:05:34;;;;;;;0.87;0.87;;;;;;;;;;5086596;28;20979;-76
2022/09/23 07:08:02;;;;;;;1.13;1.03;;;;;;;;;;5070634;28;20482;-76
2022/09/23 07:10:36;;;;;;;0.70;0.60;;;;;;;;;;5090294;28;20481;-73
2022/09/23 07:13:03;;;;;;;0.70;0.70;;;;;;;;;;5089484;28;20442;-74
2022/09/23 07:15:32;;;;;;;0.70;0.70;;;;;;;;;;5101532;28;20817;-79
2022/09/23 07:17:59;;;;;;;0.80;0.80;;;;;;;;;;5068460;28;20557;-80
2022/09/23 07:20:28;;;;;;;0.70;0.60;;;;;;;;;;5100995;28;20981;-80
2022/09/23 07:22:55;;;;;;;0.70;0.60;;;;;;;;;;5081577;28;20449;-79
2022/09/23 07:25:22;;;;;;;0.70;0.70;;;;;;;;;;5102194;28;20813;-79
2022/09/23 07:27:49;;;;;;;0.80;0.80;;;;;;;;;;5080989;28;20805;-77
2022/09/23 07:30:16;;;;;;;0.70;0.70;;;;;;;;;;5086270;28;20469;-79
2022/09/23 07:32:52;;;;;;;0.70;0.60;;;;;;;;;;5084854;28;20948;-80
2022/09/23 07:35:18;;;;;;;0.70;0.60;;;;;;;;;;5091047;28;20545;-82
2022/09/23 07:37:50;;;;;;;0.80;0.80;;;;;;;;;;5084562;28;20518;-78
2022/09/23 07:40:16;;;;;;;0.73;0.70;;;;;;;;;;5102489;28;20425;-81
2022/09/23 07:42:44;;;;;;;0.70;0.63;;;;;;;;;;5088656;28;20447;-79
2022/09/23 07:45:11;;;;;;;0.70;0.70;;;;;;;;;;5082935;28;20523;-80
2022/09/23 07:47:38;;;;;;;0.70;0.70;;;;;;;;;;5079029;28;20502;-80
2022/09/23 07:50:06;;;;;;;0.70;0.70;;;;;;;;;;5062553;28;20447;-79
2022/09/23 07:52:35;;;;;;;0.90;0.90;;;;;;;;;;5080771;28;20564;-80
2022/09/23 07:55:04;;;;;;;1.00;0.90;;;;;;;;;;5082466;28;20448;-78
2022/09/23 07:57:30;;;;;;;0.70;0.70;;;;;;;;;;5087130;28;20433;-79
2022/09/23 07:59:57;;;;;;;0.80;0.70;;;;;;;;;;5085692;28;20445;-79
2022/09/23 08:02:24;;;;;;;0.70;0.70;;;;;;;;;;5074142;28;20442;-80
2022/09/23 08:04:52;;;;;;;0.80;0.80;;;;;;;;;;5080299;28;20781;-78
2022/09/23 08:07:18;;;;;;;0.70;0.70;;;;;;;;;;5049822;28;20473;-79
2022/09/23 08:09:46;;;;;;;1.20;1.10;;;;;;;;;;5084770;28;20847;-80
2022/09/23 08:12:15;;;;;;;0.80;0.70;;;;;;;;;;5062057;28;20481;-80
2022/09/23 08:14:42;;;;;;;0.70;0.60;;;;;;;;;;5078664;28;20465;-80
2022/09/23 08:17:10;;;;;;;0.70;0.60;;;;;;;;;;5079888;28;20517;-78
2022/09/23 08:19:37;;;;;;;1.00;0.90;;;;;;;;;;5078662;28;20485;-79
2022/09/23 08:22:08;;;;;;;0.70;0.70;;;;;;;;;;5086522;28;20472;-79
2022/09/23 08:24:35;;;;;;;1.13;1.03;;;;;;;;;;5086566;28;20445;-80
2022/09/23 08:27:02;;;;;;;0.80;0.73;;;;;;;;;;5064242;28;20454;-81
2022/09/23 08:29:30;;;;;;;0.70;0.70;;;;;;;;;;5070755;28;20452;-79
2022/09/23 08:31:58;;;;;;;0.70;0.70;;;;;;;;;;5075900;28;20567;-79
2022/09/23 08:34:26;;;;;;;0.80;0.70;;;;;;;;;;5072264;28;20860;-79
2022/09/23 08:36:53;;;;;;;0.70;0.60;;;;;;;;;;5081547;28;20532;-80
2022/09/23 08:39:20;;;;;;;0.70;0.63;;;;;;;;;;5081889;28;20942;-78
2022/09/23 08:41:56;;;;;;;0.80;0.80;;;;;;;;;;5084504;28;20439;-78
2022/09/23 08:44:28;;;;;;;0.77;0.70;;;;;;;;;;5084535;28;20436;-79
2022/09/23 08:47:03;;;;;;;1.40;1.30;;;;;;;;;;5083531;28;20539;-80
2022/09/23 08:49:32;;;;;;;0.80;0.80;;;;;;;;;;5085070;28;20437;-81
2022/09/23 08:52:03;;;;;;;0.80;0.80;;;;;;;;;;5066396;28;20486;-81
2022/09/23 08:54:30;;;;;;;0.70;0.70;;;;;;;;;;5061152;28;20449;-80
2022/09/23 08:56:58;;;;;;;0.70;0.70;;;;;;;;;;5078745;28;20857;-80
2022/09/23 08:59:29;;;;;;;0.70;0.70;;;;;;;;;;5084521;28;20441;-80
2022/09/23 09:01:59;;;;;;;1.23;1.13;;;;;;;;;;5083504;28;20468;-79
2022/09/23 09:04:26;;;;;;;0.70;0.70;;;;;;;;;;5083319;28;20429;-79
2022/09/23 09:06:57;;;;;;;0.90;0.90;;;;;;;;;;5085780;28;20472;-80
2022/09/23 09:09:47;;;;;;;0.80;0.77;;;;;;;;;;5066788;28;20510;-80
2022/09/23 09:12:15;;;;;;;0.80;0.70;;;;;;;;;;5087047;28;20465;-79
2022/09/23 09:14:45;;;;;;;0.70;0.60;;;;;;;;;;5075794;28;20440;-79
2022/09/23 09:17:19;;;;;;;0.80;0.70;;;;;;;;;;5087673;28;20445;-79
2022/09/23 09:19:52;;;;;;;0.70;0.70;;;;;;;;;;5083020;28;20940;-80
2022/09/23 09:22:20;;;;;;;0.80;0.73;;;;;;;;;;5080829;28;20507;-80
2022/09/23 09:24:48;;;;;;;0.73;0.60;;;;;;;;;;5075440;28;20451;-80
2022/09/23 09:27:15;;;;;;;0.80;0.70;;;;;;;;;;5089062;28;21026;-80
2022/09/23 09:29:43;;;;;;;0.80;0.70;;;;;;;;;;5074477;28;20478;-78
2022/09/23 09:32:17;;;;;;;0.80;0.70;;;;;;;;;;5080439;28;20474;-79
2022/09/23 09:34:46;;;;;;;0.80;0.70;;;;;;;;;;5084533;28;20503;-79
2022/09/23 09:37:16;;;;;;;0.80;0.80;;;;;;;;;;5085176;28;20561;-79
2022/09/23 09:39:43;;;;;;;0.80;0.70;;;;;;;;;;5084779;28;20772;-79
2022/09/23 09:42:14;;;;;;;0.70;0.67;;;;;;;;;;5083565;28;20468;-80
2022/09/23 09:44:43;;;;;;;1.77;1.13;;;;;;;;;;5081732;28;20446;-79
2022/09/23 09:47:27;;;;;;;0.80;0.70;;;;;;;;;;5093613;28;20420;-79
2022/09/23 09:50:00;;;;;;;1.37;1.27;;;;;;;;;;5067664;28;20397;-78
2022/09/23 09:52:28;;;;;;;0.80;0.80;;;;;;;;;;5104089;28;20971;-78
2022/09/23 09:55:13;;;;;;;0.70;0.70;;;;;;;;;;5074646;28;20413;-79
2022/09/23 09:57:43;;;;;;;0.70;0.60;;;;;;;;;;5081335;28;20451;-78
2022/09/23 10:00:30;;;;;;;0.70;0.60;;;;;;;;;;5086235;28;20789;-81
2022/09/23 10:03:02;;;;;;;0.80;0.80;;;;;;;;;;5081952;28;21012;-79
2022/09/23 10:05:31;;;;;;;0.90;0.80;;;;;;;;;;5081389;28;20450;-79
2022/09/23 10:08:13;;;;;;;0.70;0.70;;;;;;;;;;5066160;28;20460;-79
2022/09/23 10:10:53;;;;;;;1.00;0.90;;;;;;;;;;5071080;28;20442;-79
2022/09/23 10:13:38;;;;;;;1.03;0.93;;;;;;;;;;5083618;28;20483;-78
2022/09/23 10:16:06;;;;;;;0.80;0.70;;;;;;;;;;5075471;28;21089;-79
2022/09/23 10:18:36;;;;;;;0.80;0.70;;;;;;;;;;5088179;28;20539;-79
2022/09/23 10:21:06;;;;;;;0.80;0.80;;;;;;;;;;5074433;28;20462;-79
2022/09/23 10:23:37;;;;;;;0.77;0.70;;;;;;;;;;5082721;28;20442;-79
2022/09/23 10:26:10;;;;;;;0.80;0.70;;;;;;;;;;5081146;28;20578;-79
2022/09/23 10:28:40;;;;;;;1.67;0.80;;;;;;;;;;5085190;28;20470;-78
2022/09/23 10:31:08;;;;;;;0.80;0.70;;;;;;;;;;5078265;28;20990;-79
2022/09/23 10:33:40;;;;;;;1.53;1.37;;;;;;;;;;5082638;28;21041;-79
2022/09/23 10:36:08;;;;;;;0.90;0.80;;;;;;;;;;5082971;28;20568;-78
2022/09/23 10:38:34;;;;;;;1.00;0.90;;;;;;;;;;5089445;28;20437;-80
2022/09/23 10:46:38;;;;;;;0.80;0.70;;;;;;;;;;5082636;28;20493;-77
2022/09/23 10:49:28;;;;;;;1.27;1.20;;;;;;;;;;5083827;28;20507;-79
2022/09/23 10:52:02;;;;;;;0.80;0.70;;;;;;;;;;5039718;28;21055;-78
2022/09/23 10:54:35;;;;;;;0.80;0.70;;;;;;;;;;5082390;28;20435;-78
2022/09/23 10:57:36;;;;;;;0.70;0.70;;;;;;;;;;5080750;28;20397;-78
2022/09/23 10:59:55;;;;;;;0.80;0.80;;;;;;;;;;5083417;28;20477;-78
2022/09/23 11:02:30;;;;;;;0.80;0.70;;;;;;;;;;5095535;28;20922;-79
2022/09/23 11:05:06;;;;;;;0.70;0.60;;;;;;;;;;5078349;28;20782;-78
2022/09/23 11:07:37;;;;;;;0.80;0.80;;;;;;;;;;5078389;28;20492;-79
2022/09/23 11:10:22;;;;;;;1.67;1.07;;;;;;;;;;5086055;28;20431;-77
2022/09/23 11:13:14;;;;;;;0.80;0.80;;;;;;;;;;5085713;28;20885;-80
2022/09/23 11:15:49;;;;;;;0.80;0.70;;;;;;;;;;5082907;28;20872;-79
2022/09/23 11:18:28;;;;;;;0.80;0.70;;;;;;;;;;5074132;28;20428;-80
2022/09/23 11:21:00;;;;;;;1.13;1.03;;;;;;;;;;5078218;28;20552;-80
2022/09/23 11:23:36;;;;;;;0.83;0.83;;;;;;;;;;5056981;28;20462;-79
2022/09/23 11:26:08;;;;;;;0.70;0.60;;;;;;;;;;5080690;28;20443;-80
2022/09/23 11:28:44;;;;;;;1.10;1.00;;;;;;;;;;5077392;28;20427;-79
2022/09/23 11:31:20;;;;;;;0.80;0.80;;;;;;;;;;5076806;28;20409;-79
2022/09/23 11:33:59;;;;;;;0.80;0.80;;;;;;;;;;5078367;28;20507;-78
2022/09/23 11:36:31;;;;;;;0.70;0.70;;;;;;;;;;5072170;28;20524;-79
2022/09/23 11:39:01;;;;;;;0.80;0.70;;;;;;;;;;5079566;28;20474;-79
2022/09/23 11:41:29;;;;;;;0.80;0.77;;;;;;;;;;5091867;28;20430;-79
2022/09/23 11:44:00;;;;;;;0.80;0.80;;;;;;;;;;5074948;28;20405;-79
2022/09/23 11:46:29;;;;;;;0.80;0.70;;;;;;;;;;5081846;28;20457;-78
2022/09/23 11:49:00;;;;;;;0.83;0.80;;;;;;;;;;5082678;28;20438;-79
2022/09/23 11:51:30;;;;;;;4.70;1.37;;;;;;;;;;5085744;28;20481;-79
2022/09/23 11:53:58;;;;;;;0.70;0.60;;;;;;;;;;5077986;28;20429;-79
2022/09/23 11:56:29;;;;;;;0.80;0.80;;;;;;;;;;5085845;28;20433;-79
2022/09/23 11:59:05;;;;;;;0.80;0.70;;;;;;;;;;5066304;28;20441;-80
2022/09/23 12:01:34;;;;;;;1.10;1.00;;;;;;;;;;5087193;28;20422;-79
2022/09/23 12:04:07;;;;;;;0.70;0.63;;;;;;;;;;5107566;28;20866;-79
2022/09/23 12:06:46;;;;;;;0.70;0.60;;;;;;;;;;5079382;28;20440;-77
2022/09/23 12:09:18;;;;;;;0.80;0.70;;;;;;;;;;5094957;28;20458;-79
2022/09/23 12:12:12;;;;;;;0.83;0.80;;;;;;;;;;5087764;28;20482;-80
2022/09/23 12:14:44;;;;;;;0.73;0.70;;;;;;;;;;5082432;28;20775;-79
2022/09/23 12:17:23;;;;;;;0.77;0.70;;;;;;;;;;5086630;28;20445;-79
2022/09/23 12:20:03;;;;;;;1.00;0.90;;;;;;;;;;5059896;28;20513;-78
2022/09/23 12:22:38;;;;;;;0.73;0.70;;;;;;;;;;5062997;28;20955;-79
2022/09/23 12:25:22;;;;;;;0.80;0.70;;;;;;;;;;5065152;28;20429;-79
2022/09/23 12:27:52;;;;;;;0.80;0.80;;;;;;;;;;5063616;28;20542;-78
2022/09/23 12:30:20;;;;;;;0.90;0.90;;;;;;;;;;5084615;28;20497;-80
2022/09/23 12:32:47;;;;;;;1.10;0.80;;;;;;;;;;5062492;28;20532;-79
2022/09/23 12:35:21;;;;;;;0.73;0.70;;;;;;;;;;5062882;28;20457;-79
2022/09/23 12:37:48;;;;;;;0.80;0.80;;;;;;;;;;5089161;28;20417;-80
2022/09/23 12:40:20;;;;;;;0.80;0.73;;;;;;;;;;5060741;28;20455;-78
2022/09/23 12:42:47;;;;;;;1.17;1.07;;;;;;;;;;5079627;28;20417;-79
2022/09/23 12:45:18;;;;;;;0.80;0.70;;;;;;;;;;5086328;28;20439;-78
2022/09/23 12:47:44;;;;;;;3.07;1.07;;;;;;;;;;5085200;28;20478;-79
2022/09/23 12:50:30;;;;;;;0.70;0.70;;;;;;;;;;5082367;28;20438;-79
2022/09/23 12:53:17;;;;;;;0.90;0.90;;;;;;;;;;5088290;28;20453;-80
2022/09/23 12:55:45;;;;;;;0.73;0.70;;;;;;;;;;5087759;28;20474;-80
2022/09/23 12:58:27;;;;;;;0.73;0.70;;;;;;;;;;5085775;28;20426;-79
2022/09/23 13:01:06;;;;;;;1.60;1.50;;;;;;;;;;5077427;28;20456;-79
2022/09/23 13:06:37;;;;;;;0.80;0.80;;;;;;;;;;5078320;28;20486;-79
2022/09/23 13:09:06;;;;;;;0.93;0.93;;;;;;;;;;5085411;28;20756;-79
2022/09/23 13:11:35;;;;;;;0.80;0.80;;;;;;;;;;5086304;28;20908;-79
2022/09/23 13:14:04;;;;;;;0.80;0.80;;;;;;;;;;5084565;28;20435;-80
2022/09/23 13:16:33;;;;;;;0.80;0.80;;;;;;;;;;5064634;28;20446;-80
2022/09/23 13:19:02;;;;;;;0.70;0.70;;;;;;;;;;5077707;28;20556;-80
2022/09/23 13:21:49;;;;;;;0.70;0.70;;;;;;;;;;5062827;28;20484;-78
2022/09/23 13:24:18;;;;;;;0.80;0.77;;;;;;;;;;5076490;28;20914;-80
2022/09/23 13:26:46;;;;;;;0.70;0.70;;;;;;;;;;5091401;28;20941;-79
2022/09/23 13:29:15;;;;;;;0.80;0.80;;;;;;;;;;5082863;28;20456;-79
2022/09/23 13:31:44;;;;;;;0.80;0.80;;;;;;;;;;5088628;28;20423;-79
2022/09/23 13:34:12;;;;;;;0.80;0.70;;;;;;;;;;5071212;28;20794;-80
2022/09/23 13:36:43;;;;;;;0.80;0.80;;;;;;;;;;5078999;28;20808;-80
2022/09/23 13:39:15;;;;;;;0.70;0.70;;;;;;;;;;5084287;28;20819;-79
2022/09/23 13:41:43;;;;;;;0.70;0.70;;;;;;;;;;5085217;28;20439;-79
2022/09/23 13:44:14;;;;;;;0.80;0.80;;;;;;;;;;5098454;28;20774;-79
2022/09/23 13:46:44;;;;;;;1.37;1.27;;;;;;;;;;5084422;28;20432;-79
2022/09/23 13:49:19;;;;;;;0.70;0.70;;;;;;;;;;5069694;28;20440;-78
2022/09/23 13:51:45;;;;;;;0.80;0.80;;;;;;;;;;5107314;28;20555;-78
2022/09/23 13:54:25;;;;;;;4.70;3.13;;;;;;;;;;5077623;28;20438;-78
2022/09/23 13:56:52;;;;;;;0.80;0.70;;;;;;;;;;5090796;28;20960;-78
2022/09/23 13:59:23;;;;;;;0.90;0.90;;;;;;;;;;5070595;28;20420;-78
2022/09/23 14:01:49;;;;;;;0.80;0.80;;;;;;;;;;5073599;28;20803;-79
2022/09/23 14:04:23;;;;;;;1.00;0.90;;;;;;;;;;5067819;28;20437;-79
2022/09/23 14:06:51;;;;;;;0.83;0.80;;;;;;;;;;5062385;28;20804;-79
2022/09/23 14:09:20;;;;;;;1.10;1.00;;;;;;;;;;5076414;28;20436;-79
2022/09/23 14:11:48;;;;;;;0.77;0.70;;;;;;;;;;5068567;28;20877;-78
2022/09/23 14:14:17;;;;;;;1.17;1.07;;;;;;;;;;5085233;28;20440;-80
2022/09/23 14:16:48;;;;;;;1.70;1.53;;;;;;;;;;5101662;28;20930;-78
2022/09/23 14:19:16;;;;;;;0.80;0.80;;;;;;;;;;5081522;28;20430;-79
2022/09/23 14:21:48;;;;;;;0.80;0.77;;;;;;;;;;5075005;28;20418;-78
2022/09/23 14:24:16;;;;;;;0.80;0.80;;;;;;;;;;5066785;28;20443;-79
2022/09/23 14:26:46;;;;;;;0.70;0.70;;;;;;;;;;5080453;28;20434;-79
2022/09/23 14:29:14;;;;;;;0.90;0.90;;;;;;;;;;5078747;28;20457;-79
2022/09/23 14:31:43;;;;;;;0.80;0.80;;;;;;;;;;5083940;28;20457;-79
2022/09/23 14:34:24;;;;;;;0.80;0.80;;;;;;;;;;5081694;28;20476;-79
2022/09/23 14:39:39;;;;;;;0.70;0.70;;;;;;;;;;5088847;28;20434;-79
2022/09/23 14:42:06;;;;;;;0.80;0.70;;;;;;;;;;5088154;28;20436;-79
2022/09/23 14:44:34;;;;;;;0.97;0.93;;;;;;;;;;5090433;28;20782;-79
2022/09/23 14:47:02;;;;;;;1.07;0.97;;;;;;;;;;5082104;28;20492;-79
2022/09/23 14:49:29;;;;;;;0.80;0.70;;;;;;;;;;5082772;28;20436;-79
2022/09/23 14:52:04;;;;;;;0.80;0.80;;;;;;;;;;5085725;28;21033;-78
2022/09/23 14:54:33;;;;;;;0.83;0.77;;;;;;;;;;5089180;28;20461;-80
2022/09/23 14:57:01;;;;;;;2.03;1.10;;;;;;;;;;5085611;28;20538;-78
2022/09/23 14:59:32;;;;;;;0.80;0.80;;;;;;;;;;5085243;28;20446;-79
2022/09/23 15:02:00;;;;;;;0.80;0.80;;;;;;;;;;5085400;28;20427;-78
2022/09/23 15:04:30;;;;;;;0.73;0.70;;;;;;;;;;5082432;28;20547;-78
2022/09/23 15:07:13;;;;;;;0.80;0.80;;;;;;;;;;5082789;28;20462;-78
2022/09/23 15:09:41;;;;;;;0.90;0.90;;;;;;;;;;5089099;28;20438;-78
2022/09/23 15:12:11;;;;;;;1.00;0.90;;;;;;;;;;5079202;28;20433;-78
2022/09/23 15:14:40;;;;;;;0.73;0.73;;;;;;;;;;5056271;28;20451;-78